Lake Village, Arkansas
Current Conditions -  °F | °C
As of 3:53 PM on Thursday 18 Dec 2014 (Local Time) from KGLH Reporting Station
Overcast Overcast  
Wind Chill: 51°   Ceiling: 3300
Heat Index: 51°   Visibility: 8mi
Dew Point: 43°   Wind: 0mph
Humidity: 74%   Direction: NA
Pressure: 30.16"   Gusts: NA
Location:  33.33°N, 91.28°W
Report Text: KGLH 182153Z AUTO 00000KT 8SM OVC033 11/06 A3016 RMK AO2 SLP220 T01060061
Loading
Personal Weather Stations






























Interactive Weather Map New forecast layout! Learn more

10-Day Weather Forecast

Advertisements
Track Severe Weather on mobile